Time;durP1;ratioP1;P1;durP2;ratioP2;P2;SDS_P1;SDS_P2;PMS_P1;PMS_P2;Temp;Humidity;BMP_temperature;BMP_pressure;BME280_temperature;BME280_humidity;BME280_pressure;Samples;Min_cycle;Max_cycle;Signal;HPM_P1;HPM_P2
2022/06/26 00:04:52;;;;;;;9.35;6.60;;;;;;;18.79;67.95;98858.72;4282039;81;21134;-91
2022/06/26 00:10:55;;;;;;;8.25;5.75;;;;;;;18.71;68.30;98855.30;4286522;81;21093;-90
2022/06/26 00:16:56;;;;;;;9.15;6.85;;;;;;;18.66;69.14;98857.23;4263017;81;21065;-89
2022/06/26 00:22:59;;;;;;;8.73;6.20;;;;;;;18.47;69.29;98858.66;4281952;81;21065;-89
2022/06/26 00:29:00;;;;;;;12.03;6.22;;;;;;;18.33;69.62;98852.02;4290911;81;22270;-90
2022/06/26 00:35:06;;;;;;;9.95;6.83;;;;;;;18.14;70.26;98860.55;4287656;81;21094;-89
2022/06/26 00:41:09;;;;;;;10.45;6.35;;;;;;;18.02;70.92;98865.36;4288271;81;21078;-91
2022/06/26 00:47:10;;;;;;;9.68;6.72;;;;;;;17.83;71.33;98864.76;4284668;81;21073;-93
2022/06/26 00:53:12;;;;;;;9.85;7.33;;;;;;;17.63;71.33;98872.87;4279920;81;21038;-89
2022/06/26 00:59:17;;;;;;;9.83;7.22;;;;;;;17.35;72.07;98869.22;4283613;81;21552;-91
2022/06/26 01:05:19;;;;;;;11.63;7.00;;;;;;;17.38;72.85;98871.92;4277972;81;21048;-90
2022/06/26 01:11:21;;;;;;;8.10;6.75;;;;;;;17.21;73.01;98871.64;4280740;81;21102;-90
2022/06/26 01:17:23;;;;;;;12.35;7.92;;;;;;;17.11;73.51;98883.66;4286843;81;21106;-90
2022/06/26 01:23:26;;;;;;;10.08;6.97;;;;;;;17.01;74.06;98876.31;4283495;81;21069;-89
2022/06/26 01:29:29;;;;;;;9.98;7.72;;;;;;;16.93;74.38;98870.70;4281470;82;21092;-90
2022/06/26 01:35:32;;;;;;;13.32;8.30;;;;;;;16.69;74.52;98875.45;4287146;81;21897;-92
2022/06/26 01:41:35;;;;;;;9.53;7.35;;;;;;;16.65;75.40;98874.71;4280886;81;21089;-90
2022/06/26 01:47:37;;;;;;;8.30;6.37;;;;;;;16.67;75.86;98879.82;4284097;81;21104;-90
2022/06/26 01:53:38;;;;;;;10.25;7.00;;;;;;;16.58;76.07;98877.59;4282258;81;21066;-89
2022/06/26 01:59:40;;;;;;;12.43;7.45;;;;;;;16.53;76.56;98876.67;4261757;81;21147;-93
2022/06/26 02:05:44;;;;;;;9.23;7.55;;;;;;;16.61;76.82;98882.88;4274778;81;21550;-89
2022/06/26 02:18:06;;;;;;;10.98;7.12;;;;;;;16.33;77.37;98895.68;4287227;81;21070;-91
2022/06/26 02:24:08;;;;;;;9.93;7.22;;;;;;;16.29;77.55;98910.13;4280715;81;21054;-89
2022/06/26 02:30:14;;;;;;;12.90;8.23;;;;;;;16.12;78.11;98906.98;4290484;81;21639;-91
2022/06/26 02:36:15;;;;;;;8.97;8.07;;;;;;;16.22;78.58;98913.78;4262947;81;21121;-92
2022/06/26 02:42:17;;;;;;;12.60;9.13;;;;;;;16.10;78.68;98912.92;4267042;81;21106;-89
2022/06/26 02:48:20;;;;;;;12.07;8.85;;;;;;;15.92;78.90;98917.09;4275021;81;21117;-90
2022/06/26 02:54:22;;;;;;;11.53;8.90;;;;;;;15.77;79.36;98927.50;4268923;81;21074;-89
2022/06/26 03:00:26;;;;;;;9.65;8.35;;;;;;;15.68;79.66;98929.38;4279118;81;21107;-87
2022/06/26 03:06:28;;;;;;;15.78;10.15;;;;;;;15.68;80.22;98932.14;4277396;81;21593;-88
2022/06/26 03:12:30;;;;;;;14.33;9.40;;;;;;;15.56;80.26;98940.16;4287275;81;21964;-90
2022/06/26 03:18:33;;;;;;;12.25;9.78;;;;;;;15.50;80.78;98943.94;3994420;81;222832;-88
2022/06/26 03:24:35;;;;;;;11.03;8.13;;;;;;;15.52;81.08;98941.56;4106993;85;21101;-89
2022/06/26 03:30:37;;;;;;;13.85;9.08;;;;;;;15.52;80.85;98947.66;4098322;85;21129;-90
2022/06/26 03:36:39;;;;;;;10.98;8.23;;;;;;;15.51;81.77;98953.00;4096933;85;21149;-88
2022/06/26 03:42:41;;;;;;;10.98;8.23;;;;;;;15.62;81.66;98960.00;4105476;85;21057;-88
2022/06/26 03:48:42;;;;;;;10.03;7.20;;;;;;;15.96;82.70;98964.79;4052718;86;21143;-87
2022/06/26 03:54:44;;;;;;;8.68;7.55;;;;;;;16.33;82.44;98964.16;4097421;85;21573;-87
2022/06/26 04:00:47;;;;;;;9.10;7.37;;;;;;;16.54;82.37;98969.42;4038858;86;21187;-89
2022/06/26 04:06:48;;;;;;;9.65;8.00;;;;;;;16.66;82.45;98965.33;4092863;85;21605;-88
2022/06/26 04:12:52;;;;;;;12.05;6.95;;;;;;;16.79;82.46;98967.09;4084540;85;21126;-87
2022/06/26 04:18:53;;;;;;;10.43;7.97;;;;;;;16.97;82.50;98964.08;4080685;85;21582;-91
2022/06/26 04:24:55;;;;;;;10.15;6.97;;;;;;;17.16;82.30;98961.39;4085869;85;21089;-88
2022/06/26 04:30:57;;;;;;;12.90;8.10;;;;;;;17.29;82.24;98971.27;4022508;86;22166;-94
2022/06/26 04:36:59;;;;;;;14.33;7.25;;;;;;;17.44;82.33;98977.36;4027845;86;21079;-89
2022/06/26 04:43:01;;;;;;;10.03;7.08;;;;;;;17.57;82.17;98982.52;4055849;85;21089;-90
2022/06/26 04:49:03;;;;;;;15.18;7.87;;;;;;;17.72;81.98;98976.31;4064990;86;21077;-90
2022/06/26 04:55:09;;;;;;;14.68;8.25;;;;;;;17.82;81.69;98980.09;4040273;86;21117;-90
2022/06/26 05:01:12;;;;;;;;;;;;;;;17.85;81.44;98973.11;4099768;85;21044;-90
2022/06/26 05:07:28;;;;;;;10.82;7.37;;;;;;;18.05;81.76;98967.58;4038493;85;20313;-89
2022/06/26 05:13:30;;;;;;;10.93;8.13;;;;;;;18.17;81.22;98972.48;4047113;86;21066;-88
2022/06/26 05:19:50;;;;;;;8.00;7.15;;;;;;;18.26;81.20;98976.25;4096206;86;21607;-92
2022/06/26 05:25:55;;;;;;;12.78;8.43;;;;;;;18.45;81.09;98981.64;4087031;85;21058;-90
2022/06/26 05:31:57;;;;;;;11.30;8.20;;;;;;;18.68;81.20;98985.73;4046935;86;21098;-93
2022/06/26 05:37:59;;;;;;;12.43;7.67;;;;;;;18.94;81.19;98990.28;4086821;85;21069;-91
2022/06/26 05:44:04;;;;;;;9.38;7.53;;;;;;;19.20;80.99;99000.38;4012535;87;21155;-93
2022/06/26 05:50:07;;;;;;;12.78;8.35;;;;;;;19.40;80.57;99006.69;4095549;85;21101;-92
2022/06/26 05:56:31;;;;;;;9.00;7.70;;;;;;;19.61;80.35;99009.52;4109622;85;21126;-96
2022/06/26 06:02:35;;;;;;;8.45;7.55;;;;;;;19.85;80.19;99011.69;4021961;86;21124;-91
2022/06/26 06:08:36;;;;;;;12.28;8.40;;;;;;;20.02;80.07;99021.56;4029893;87;21092;-94
2022/06/26 06:14:40;;;;;;;8.83;6.72;;;;;;;20.23;79.76;99027.95;4037160;86;21118;-93
2022/06/26 06:20:45;;;;;;;8.58;7.25;;;;;;;20.45;79.46;99024.59;4078203;85;21224;-90
2022/06/26 06:26:48;;;;;;;8.05;6.80;;;;;;;20.68;79.20;99034.84;4054089;86;21073;-95
2022/06/26 06:32:55;;;;;;;8.95;7.00;;;;;;;20.93;78.77;99030.73;4097323;85;21317;-94
2022/06/26 06:39:07;;;;;;;10.23;7.08;;;;;;;21.18;77.92;99043.91;4089493;85;21097;-92
2022/06/26 06:45:10;;;;;;;9.60;7.53;;;;;;;21.39;77.36;99039.08;4074214;85;21062;-91
2022/06/26 06:51:31;;;;;;;12.15;7.10;;;;;;;21.69;76.89;99041.27;4000650;87;21073;-92
2022/06/26 06:57:33;;;;;;;9.35;7.20;;;;;;;22.13;76.12;99038.04;4078634;85;21164;-91
2022/06/26 07:03:35;;;;;;;8.83;6.90;;;;;;;22.64;75.11;99044.38;4094744;85;21133;-92
2022/06/26 07:09:36;;;;;;;7.65;6.40;;;;;;;23.27;74.97;99041.81;4036041;86;21212;-92
2022/06/26 07:15:39;;;;;;;8.58;6.35;;;;;;;23.94;73.69;99045.44;4088573;85;21033;-94
2022/06/26 07:21:45;;;;;;;10.48;6.67;;;;;;;24.52;71.88;99044.73;4014775;84;21053;-93
2022/06/26 07:27:47;;;;;;;8.23;5.60;;;;;;;25.12;70.37;99046.22;4000011;87;22498;-91
2022/06/26 07:40:11;;;;;;;9.55;5.50;;;;;;;26.14;68.16;99037.80;4096534;85;21431;-91
2022/06/26 07:46:13;;;;;;;6.55;5.30;;;;;;;26.52;66.92;99039.22;4045594;86;21117;-94
2022/06/26 07:52:20;;;;;;;8.48;5.80;;;;;;;26.83;65.29;99035.36;4094991;85;21589;-93
2022/06/26 07:58:24;;;;;;;8.85;5.42;;;;;;;27.03;63.76;99046.69;4010105;86;21077;-92
2022/06/26 08:04:25;;;;;;;7.87;5.72;;;;;;;27.06;62.48;99033.08;4090419;85;21697;-94
2022/06/26 08:10:27;;;;;;;7.17;4.97;;;;;;;27.18;60.85;99036.23;4088958;85;21591;-92
2022/06/26 08:16:29;;;;;;;5.42;4.60;;;;;;;27.23;59.78;99041.18;4015886;86;21130;-91
2022/06/26 08:22:30;;;;;;;6.00;4.17;;;;;;;27.33;58.38;99039.83;4094767;85;21061;-92
2022/06/26 08:28:33;;;;;;;6.05;3.77;;;;;;;27.49;57.94;99033.70;4077910;85;21118;-93
2022/06/26 08:34:37;;;;;;;5.20;3.70;;;;;;;27.58;56.21;99041.22;4031861;86;21681;-91
2022/06/26 08:40:38;;;;;;;5.65;3.00;;;;;;;27.71;55.01;99042.30;4095787;85;21050;-91
2022/06/26 08:46:44;;;;;;;5.20;3.10;;;;;;;27.76;52.44;99037.40;3992305;87;21058;-92
2022/06/26 08:52:47;;;;;;;;;;;;;;;27.79;52.11;99041.42;4040042;86;21125;-93
2022/06/26 08:58:49;;;;;;;8.80;3.22;;;;;;;27.84;51.66;99031.51;4095739;85;20165;-93
2022/06/26 09:04:52;;;;;;;4.53;3.10;;;;;;;27.92;49.95;99029.86;4086535;85;21105;-90
2022/06/26 09:10:54;;;;;;;3.45;2.90;;;;;;;27.96;48.69;99032.61;4046261;86;21451;-90
2022/06/26 09:16:58;;;;;;;4.83;2.60;;;;;;;28.07;46.59;99030.56;4065508;85;21070;-93
2022/06/26 09:23:01;;;;;;;4.97;2.87;;;;;;;28.26;46.71;99030.42;4036629;86;21579;-90
2022/06/26 09:29:15;;;;;;;3.72;3.00;;;;;;;28.43;45.72;99029.98;4099627;85;21202;-90
2022/06/26 09:35:21;;;;;;;4.95;2.85;;;;;;;28.67;45.49;99032.73;4086973;85;21126;-92
2022/06/26 09:41:37;;;;;;;;;;;;;;;29.06;44.43;99031.73;4052355;84;21128;-93
2022/06/26 09:47:42;;;;;;;3.80;2.30;;;;;;;29.40;43.22;99032.76;4082180;85;20264;-90
2022/06/26 09:53:45;;;;;;;2.83;2.37;;;;;;;29.69;42.03;99037.51;4051527;86;21700;-92
2022/06/26 09:59:47;;;;;;;3.77;2.45;;;;;;;29.99;41.63;99040.76;4028272;87;21097;-95
2022/06/26 10:12:13;;;;;;;4.42;2.27;;;;;;;30.23;36.80;99036.28;4055330;86;21137;-93
2022/06/26 10:18:45;;;;;;;4.37;2.02;;;;;;;30.49;36.98;99034.71;4096566;85;21086;-93
2022/06/26 10:24:50;;;;;;;3.27;2.20;;;;;;;30.70;37.54;99033.87;4092513;85;21097;-94
2022/06/26 10:30:52;;;;;;;6.00;2.58;;;;;;;30.97;33.89;99018.39;4092042;85;21092;-93
2022/06/26 10:37:15;;;;;;;5.47;2.27;;;;;;;31.22;37.06;99027.91;4046944;86;21129;-91
2022/06/26 10:43:19;;;;;;;3.58;2.17;;;;;;;31.65;35.95;99024.95;4087060;85;21102;-92
2022/06/26 10:49:21;;;;;;;3.55;2.60;;;;;;;31.80;35.26;99021.19;4093995;85;21142;-92
2022/06/26 10:55:25;;;;;;;5.00;2.40;;;;;;;31.94;34.07;99015.90;3999062;87;21062;-93
2022/06/26 11:01:27;;;;;;;3.37;2.67;;;;;;;32.12;34.65;99007.48;4084930;85;21107;-93
2022/06/26 11:07:31;;;;;;;3.85;2.20;;;;;;;32.25;33.91;99009.10;3978998;87;21102;-92
2022/06/26 11:13:35;;;;;;;4.25;2.20;;;;;;;32.46;34.20;99013.13;4102790;85;21113;-91
2022/06/26 11:26:02;;;;;;;4.95;2.60;;;;;;;33.04;33.24;99005.45;4100451;85;21426;-93
2022/06/26 11:32:05;;;;;;;5.62;2.40;;;;;;;33.39;33.25;99003.25;4035495;86;22000;-93
2022/06/26 11:38:15;;;;;;;4.00;2.12;;;;;;;33.74;32.45;99003.77;4028313;87;21146;-91
2022/06/26 11:44:17;;;;;;;3.37;2.22;;;;;;;33.69;32.11;98998.28;4086904;85;21691;-91
2022/06/26 11:50:21;;;;;;;3.92;1.87;;;;;;;34.12;31.62;99000.53;4087803;85;21090;-93
2022/06/26 11:56:27;;;;;;;2.72;2.05;;;;;;;34.20;31.81;99000.70;4040649;86;21092;-91
2022/06/26 12:02:28;;;;;;;3.47;2.20;;;;;;;34.22;31.92;98996.00;4024959;87;21090;-91
2022/06/26 12:08:31;;;;;;;3.35;2.45;;;;;;;34.24;31.37;98992.63;4069519;85;21130;-90
2022/06/26 12:14:32;;;;;;;2.37;2.15;;;;;;;33.75;30.22;98986.20;4084747;85;21055;-91
2022/06/26 12:20:38;;;;;;;3.47;2.37;;;;;;;33.15;30.61;98986.92;4084175;83;80415;-91
2022/06/26 12:26:41;;;;;;;4.10;2.20;;;;;;;32.90;29.85;98985.32;4011169;87;21170;-90
2022/06/26 12:32:42;;;;;;;7.92;2.12;;;;;;;32.36;30.41;98987.17;3982637;88;21097;-89
2022/06/26 12:38:46;;;;;;;2.75;2.50;;;;;;;32.26;30.71;98980.89;3955264;88;21109;-92
2022/06/26 12:44:47;;;;;;;6.78;2.40;;;;;;;31.92;30.64;98976.78;4017825;87;21029;-91
2022/06/26 12:50:49;;;;;;;5.50;2.55;;;;;;;31.62;30.97;98979.30;4020039;87;21066;-92
2022/06/26 12:56:51;;;;;;;5.62;2.85;;;;;;;31.17;30.43;98974.31;4023031;85;21041;-89
2022/06/26 13:02:53;;;;;;;4.70;2.67;;;;;;;30.83;30.94;98972.77;3971795;88;21137;-93
2022/06/26 13:08:55;;;;;;;3.65;2.20;;;;;;;30.83;31.54;98969.95;4020289;87;21126;-91
2022/06/26 13:14:56;;;;;;;3.40;2.58;;;;;;;30.82;31.47;98957.75;3953559;88;21370;-90
2022/06/26 13:21:00;;;;;;;5.17;2.55;;;;;;;30.79;31.96;98956.70;3994450;87;21097;-91
2022/06/26 13:27:03;;;;;;;3.10;2.45;;;;;;;30.72;31.96;98961.43;3973984;88;21096;-90
2022/06/26 13:33:05;;;;;;;2.90;2.30;;;;;;;30.61;32.03;98969.11;3981657;88;21184;-89
2022/06/26 13:39:07;;;;;;;3.30;2.60;;;;;;;30.53;31.62;98963.97;3977953;87;21108;-90
2022/06/26 13:45:09;;;;;;;3.75;2.42;;;;;;;30.42;31.49;98966.00;3974164;88;21060;-91
2022/06/26 13:51:11;;;;;;;6.92;2.42;;;;;;;30.33;32.15;98957.77;3973744;88;21035;-92
2022/06/26 13:57:13;;;;;;;6.12;2.85;;;;;;;30.33;32.12;98962.78;3972797;88;21147;-90
2022/06/26 14:03:17;;;;;;;4.08;2.20;;;;;;;30.32;32.04;98964.05;4022711;87;21458;-93
2022/06/26 14:09:19;;;;;;;4.22;2.55;;;;;;;30.31;31.99;98961.73;4018702;87;21141;-89
2022/06/26 14:15:24;;;;;;;5.30;2.52;;;;;;;30.23;31.67;98962.09;4024106;87;21410;-91
2022/06/26 14:21:25;;;;;;;7.30;2.42;;;;;;;30.26;31.88;98961.06;4024813;86;21057;-92
2022/06/26 14:27:27;;;;;;;4.03;2.52;;;;;;;30.24;31.63;98960.16;3997743;86;21069;-90
2022/06/26 14:33:29;;;;;;;4.00;2.15;;;;;;;30.17;31.89;98964.87;4024262;87;21157;-90
2022/06/26 14:39:30;;;;;;;4.45;2.33;;;;;;;30.09;31.59;98966.64;4022808;87;21057;-89
2022/06/26 14:45:32;;;;;;;4.05;2.50;;;;;;;30.11;31.79;98963.31;4024950;87;21583;-90
2022/06/26 14:51:34;;;;;;;4.55;2.70;;;;;;;30.08;32.12;98966.52;4022019;87;21120;-91
2022/06/26 14:57:36;;;;;;;4.92;2.25;;;;;;;30.03;32.40;98966.48;4020004;87;21695;-89
2022/06/26 15:03:37;;;;;;;3.95;2.50;;;;;;;29.93;32.53;98967.34;4022444;87;21097;-89
2022/06/26 15:09:38;;;;;;;6.28;2.40;;;;;;;30.02;32.07;98971.34;4024196;87;21151;-92
2022/06/26 15:15:40;;;;;;;3.55;2.10;;;;;;;30.03;32.26;98970.72;4018953;87;21042;-92
2022/06/26 15:21:41;;;;;;;3.62;2.17;;;;;;;30.04;32.23;98969.42;4022026;87;21105;-91
2022/06/26 15:27:43;;;;;;;2.92;2.05;;;;;;;30.02;32.03;98963.54;4021142;87;21088;-91
2022/06/26 15:33:46;;;;;;;5.08;2.60;;;;;;;29.89;32.28;98965.41;4021491;87;21109;-90
2022/06/26 15:39:49;;;;;;;4.05;2.27;;;;;;;29.78;32.01;98962.53;4014219;87;21660;-92
2022/06/26 15:45:50;;;;;;;4.80;2.40;;;;;;;29.67;32.48;98962.48;4021051;87;21706;-94
2022/06/26 15:51:55;;;;;;;5.22;2.20;;;;;;;29.56;32.89;98955.96;4020664;87;21124;-93
2022/06/26 15:57:56;;;;;;;2.98;2.10;;;;;;;29.42;32.97;98961.91;4020033;87;21665;-88
2022/06/26 16:03:59;;;;;;;3.55;2.40;;;;;;;29.30;32.90;98963.13;4028859;87;22270;-90
2022/06/26 16:10:01;;;;;;;5.60;2.40;;;;;;;29.20;33.04;98958.94;4019123;87;22357;-91
2022/06/26 16:16:03;;;;;;;2.90;2.55;;;;;;;29.15;33.37;98956.06;4021159;87;21106;-92
2022/06/26 16:28:25;;;;;;;5.05;2.83;;;;;;;29.07;34.13;98959.98;3975414;88;21112;-90
2022/06/26 16:34:28;;;;;;;5.47;2.70;;;;;;;29.00;34.81;98961.84;3971396;88;21193;-91
2022/06/26 16:40:30;;;;;;;3.95;2.70;;;;;;;28.90;35.37;98966.09;3950954;88;21053;-91
2022/06/26 16:46:31;;;;;;;7.47;3.25;;;;;;;28.80;36.03;98965.50;3971592;88;21145;-91
2022/06/26 16:52:38;;;;;;;4.30;3.00;;;;;;;28.70;36.49;98959.92;3976540;88;21056;-89
2022/06/26 16:58:39;;;;;;;6.42;3.37;;;;;;;28.62;36.95;98959.44;3945826;88;21157;-89
2022/06/26 17:04:41;;;;;;;3.17;2.67;;;;;;;28.47;37.43;98953.91;3962437;88;21131;-90
2022/06/26 17:10:42;;;;;;;3.05;2.70;;;;;;;28.37;37.78;98963.78;3966121;88;21086;-91
2022/06/26 17:16:44;;;;;;;4.90;2.65;;;;;;;28.27;38.08;98956.75;3965687;88;21101;-90
2022/06/26 17:22:48;;;;;;;7.95;2.47;;;;;;;28.16;38.53;98957.27;3856044;88;9999712;-93
2022/06/26 17:28:52;;;;;;;4.90;2.60;;;;;;;28.02;38.96;98965.92;3958852;88;22105;-91
2022/06/26 17:34:53;;;;;;;5.05;3.35;;;;;;;27.88;39.17;98963.95;3968542;88;21094;-90
2022/06/26 17:40:55;;;;;;;6.85;3.17;;;;;;;27.77;39.38;98971.47;3962534;88;22640;-94
2022/06/26 17:53:16;;;;;;;5.45;2.60;;;;;;;27.55;39.62;98971.91;3962072;88;21176;-93
2022/06/26 17:59:17;;;;;;;3.25;2.62;;;;;;;27.44;39.80;98968.94;3957777;88;21126;-90
2022/06/26 18:05:21;;;;;;;3.70;2.77;;;;;;;27.28;40.05;98974.45;3961720;88;21090;-92
2022/06/26 18:11:23;;;;;;;4.42;2.55;;;;;;;27.16;40.21;98976.94;3963332;88;22069;-89
2022/06/26 18:17:27;;;;;;;3.47;2.30;;;;;;;27.03;40.41;98984.89;3961222;88;21085;-91
2022/06/26 18:23:29;;;;;;;3.92;2.22;;;;;;;26.89;40.74;98990.53;3959379;88;21093;-91
2022/06/26 18:29:31;;;;;;;5.55;2.72;;;;;;;26.73;41.04;98988.20;3962360;88;22375;-93
2022/06/26 18:35:33;;;;;;;4.47;2.40;;;;;;;26.26;41.41;98989.70;3962481;88;21183;-91
2022/06/26 18:41:34;;;;;;;5.12;2.70;;;;;;;26.18;42.18;99012.38;3963805;88;22379;-91
2022/06/26 18:47:43;;;;;;;9.65;2.60;;;;;;;26.18;42.18;99012.38;3968433;88;21635;-89
2022/06/26 18:53:45;;;;;;;3.30;2.80;;;;;;;25.99;42.52;99013.92;3960206;88;21062;-90
2022/06/26 18:59:47;;;;;;;3.47;2.77;;;;;;;25.60;43.38;99031.89;3968789;88;21066;-90
2022/06/26 19:05:50;;;;;;;4.87;2.67;;;;;;;25.60;43.38;99031.89;3959185;88;21081;-92
2022/06/26 19:18:12;;;;;;;6.25;3.00;;;;;;;25.25;43.97;99048.97;3963995;88;21153;-95
2022/06/26 19:24:13;;;;;;;4.05;2.67;;;;;;;25.08;44.36;99056.19;3961501;88;21316;-90
2022/06/26 19:30:15;;;;;;;4.83;2.80;;;;;;;24.91;44.79;99056.38;3960784;88;22431;-89
2022/06/26 19:36:17;;;;;;;7.20;3.20;;;;;;;24.72;45.23;99062.46;3959440;88;21209;-91
2022/06/26 19:42:26;;;;;;;6.85;3.05;;;;;;;24.56;45.70;99071.93;3963489;88;21148;-91
2022/06/26 19:48:23;;;;;;;5.10;3.72;;;;;;;24.42;46.12;99081.73;3961034;88;21135;-90
2022/06/26 19:54:25;;;;;;;9.03;3.33;;;;;;;24.24;46.56;99088.70;3966159;88;21047;-91
2022/06/26 20:00:30;;;;;;;5.95;3.05;;;;;;;24.07;47.02;99092.27;3959551;88;21104;-91
2022/06/26 20:06:32;;;;;;;8.83;3.30;;;;;;;23.91;47.47;99094.69;3965951;88;22029;-90
2022/06/26 20:12:34;;;;;;;6.47;3.83;;;;;;;23.82;47.81;99103.66;3966089;88;21133;-89
2022/06/26 20:18:36;;;;;;;8.10;4.00;;;;;;;23.67;48.18;99097.86;3961563;88;22349;-91
2022/06/26 20:24:40;;;;;;;5.08;3.40;;;;;;;23.52;48.56;99102.46;3971257;88;21195;-91
2022/06/26 20:30:42;;;;;;;4.83;3.77;;;;;;;23.40;48.95;99108.91;3959255;88;21090;-90
2022/06/26 20:36:44;;;;;;;5.50;3.47;;;;;;;23.27;49.34;99103.25;3967113;88;21154;-89
2022/06/26 20:42:45;;;;;;;4.25;3.52;;;;;;;23.05;50.22;99101.23;3965264;88;21081;-89
2022/06/26 20:48:47;;;;;;;7.15;3.83;;;;;;;22.85;51.08;99099.39;3964043;88;21088;-90
2022/06/26 20:54:49;;;;;;;6.00;3.50;;;;;;;22.71;51.19;99100.52;3958584;88;21075;-89
2022/06/26 21:00:52;;;;;;;5.50;3.17;;;;;;;22.50;51.55;99092.28;3966918;88;21089;-88
2022/06/26 21:06:56;;;;;;;7.20;4.58;;;;;;;22.42;53.03;99103.52;3966613;88;21096;-91
2022/06/26 21:12:58;;;;;;;9.58;7.15;;;;;;;22.41;53.03;99101.19;3962870;88;21101;-89
2022/06/26 21:19:01;;;;;;;10.82;5.80;;;;;;;22.18;53.00;99109.33;3947022;88;21129;-91
2022/06/26 21:25:04;;;;;;;4.47;3.62;;;;;;;21.98;53.21;99115.78;3964132;88;21117;-90
2022/06/26 21:31:11;;;;;;;8.90;3.70;;;;;;;21.82;53.47;99116.50;3966278;88;21033;-92
2022/06/26 21:37:13;;;;;;;8.53;3.92;;;;;;;21.66;53.81;99107.63;3967749;88;21129;-90
2022/06/26 21:43:15;;;;;;;5.90;3.98;;;;;;;21.48;54.44;99108.20;3970808;88;21143;-88
2022/06/26 21:49:16;;;;;;;9.45;4.20;;;;;;;21.31;54.98;99112.92;3961574;88;21094;-89
2022/06/26 21:55:22;;;;;;;9.78;4.37;;;;;;;21.12;55.34;99118.84;3969043;88;21114;-90
2022/06/26 22:01:25;;;;;;;7.90;4.10;;;;;;;20.93;56.21;99111.42;3964116;88;21093;-93
2022/06/26 22:07:29;;;;;;;6.25;4.25;;;;;;;20.77;56.66;99112.08;3895427;90;21114;-92
2022/06/26 22:13:31;;;;;;;5.85;4.45;;;;;;;20.60;57.29;99107.19;3824251;91;21119;-90
2022/06/26 22:19:32;;;;;;;7.28;4.25;;;;;;;20.49;57.61;99113.64;3902724;90;21057;-88
2022/06/26 22:27:53;;;;;;;5.47;4.00;;;;;;;20.45;57.92;99114.36;3887049;90;21090;-91
2022/06/26 22:31:37;;;;;;;5.78;3.92;;;;;;;20.43;58.32;99114.61;3830723;91;21242;-88
2022/06/26 22:37:39;;;;;;;4.70;3.92;;;;;;;20.39;58.50;99113.30;3891027;90;21149;-91
2022/06/26 22:43:40;;;;;;;6.65;4.25;;;;;;;20.30;58.87;99107.59;3898313;90;21090;-88
2022/06/26 22:49:43;;;;;;;6.50;3.90;;;;;;;20.18;59.17;99106.33;3887328;90;21117;-89
2022/06/26 22:55:46;;;;;;;5.28;4.22;;;;;;;20.06;59.95;99109.00;3890387;90;21111;-90
2022/06/26 23:01:47;;;;;;;6.75;4.22;;;;;;;19.97;60.10;99103.25;3890602;90;21080;-88
2022/06/26 23:07:51;;;;;;;7.55;4.10;;;;;;;19.86;60.41;99103.52;3885580;90;21145;-87
2022/06/26 23:13:52;;;;;;;6.35;3.87;;;;;;;19.86;61.07;99112.45;3886563;90;21162;-89
2022/06/26 23:19:53;;;;;;;6.90;4.45;;;;;;;19.90;62.11;99097.29;3886389;90;22130;-89
2022/06/26 23:25:55;;;;;;;5.78;4.65;;;;;;;19.63;62.30;99087.63;3888280;90;21110;-94
2022/06/26 23:31:57;;;;;;;6.00;4.45;;;;;;;19.48;62.61;99085.02;3887123;90;21178;-87
2022/06/26 23:37:59;;;;;;;8.88;4.80;;;;;;;19.37;62.83;99087.27;3887554;90;21633;-90
2022/06/26 23:44:00;;;;;;;9.15;4.70;;;;;;;19.27;63.21;99092.41;3886948;90;21121;-88
2022/06/26 23:50:05;;;;;;;8.98;4.97;;;;;;;19.17;63.59;99087.26;3887422;90;21174;-89
2022/06/26 23:56:07;;;;;;;6.50;4.35;;;;;;;19.08;63.89;99084.30;3886446;90;21099;-89
